Thompsonville, Michigan
Current Conditions -  °F | °C
As of 11:13 PM on Sunday 23 Nov 2014 (Local Time) from KFKS Reporting Station
Moderate Rain Moderate Rain  
Wind Chill: 45°   Ceiling: 2900
Heat Index: 47°   Visibility: 10mi
Dew Point: 46°   Wind: 6mph
Humidity: 97%   Direction: 110°ESE
Pressure: 29.23"   Gusts: NA
Location:  44.52°N, 85.94°W
Report Text: KFKS 240413Z AUTO 11005KT 10SM RA OVC029 09/08 A2923 RMK AO2 T00850080
Loading
Personal Weather Stations






























Interactive Weather Map New forecast layout! Learn more

10-Day Weather Forecast

Advertisements
Track Severe Weather on mobile